createdAt,value
2022-09-18T00:01:19.485Z,7.30
2022-09-18T00:03:47.379Z,7.40
2022-09-18T00:06:20.302Z,7.30
2022-09-18T00:08:51.234Z,7.30
2022-09-18T00:11:20.413Z,7.30
2022-09-18T00:13:47.337Z,7.30
2022-09-18T00:16:16.094Z,7.30
2022-09-18T00:18:44.134Z,7.30
2022-09-18T00:21:14.601Z,7.30
2022-09-18T00:23:41.989Z,7.30
2022-09-18T00:26:11.512Z,7.30
2022-09-18T00:28:38.845Z,7.30
2022-09-18T00:31:11.456Z,7.30
2022-09-18T00:33:40.052Z,7.30
2022-09-18T00:36:09.522Z,7.20
2022-09-18T00:38:36.513Z,7.20
2022-09-18T00:41:07.045Z,7.20
2022-09-18T00:43:36.385Z,7.20
2022-09-18T00:46:09.575Z,7.20
2022-09-18T00:48:58.309Z,7.20
2022-09-18T00:51:26.089Z,7.20
2022-09-18T00:54:04.015Z,7.30
2022-09-18T00:56:30.778Z,7.20
2022-09-18T00:58:57.870Z,7.30
2022-09-18T01:01:24.730Z,7.30
2022-09-18T01:03:51.557Z,7.30
2022-09-18T01:06:47.775Z,7.30
2022-09-18T01:09:36.701Z,7.30
2022-09-18T01:12:29.326Z,7.30
2022-09-18T01:15:02.153Z,7.30
2022-09-18T01:17:31.986Z,7.40
2022-09-18T01:20:14.088Z,7.40
2022-09-18T01:23:05.192Z,7.40
2022-09-18T01:25:51.297Z,7.40
2022-09-18T01:28:44.845Z,7.40
2022-09-18T01:31:34.622Z,7.50
2022-09-18T01:34:04.621Z,7.40
2022-09-18T01:36:36.359Z,7.40
2022-09-18T01:39:06.707Z,7.40
2022-09-18T01:41:35.276Z,7.30
2022-09-18T01:44:07.129Z,7.30
2022-09-18T01:46:37.604Z,7.30
2022-09-18T01:49:09.128Z,7.30
2022-09-18T01:51:50.393Z,7.30
2022-09-18T01:54:24.737Z,7.30
2022-09-18T01:56:59.467Z,7.30
2022-09-18T01:59:34.462Z,7.40
2022-09-18T02:02:03.741Z,7.40
2022-09-18T02:04:36.026Z,7.40
2022-09-18T02:07:02.886Z,7.40
2022-09-18T02:09:31.113Z,7.40
2022-09-18T02:12:01.939Z,7.50
2022-09-18T02:14:40.434Z,7.50
2022-09-18T02:17:17.167Z,7.50
2022-09-18T02:19:57.535Z,7.50
2022-09-18T02:22:27.744Z,7.50
2022-09-18T02:24:55.625Z,7.60
2022-09-18T02:27:24.763Z,7.60
2022-09-18T02:29:51.821Z,7.60
2022-09-18T02:32:18.920Z,7.60
2022-09-18T02:34:45.902Z,7.60
2022-09-18T02:37:24.525Z,7.60
2022-09-18T02:40:04.287Z,7.60
2022-09-18T02:42:49.898Z,7.60
2022-09-18T02:45:23.130Z,7.60
2022-09-18T02:48:11.842Z,7.60
2022-09-18T02:50:45.613Z,7.60
2022-09-18T02:53:44.700Z,7.70
2022-09-18T02:56:22.394Z,7.70
2022-09-18T02:58:58.216Z,7.70
2022-09-18T03:01:26.789Z,7.70
2022-09-18T03:03:53.849Z,7.70
2022-09-18T03:06:20.775Z,7.70
2022-09-18T03:08:47.485Z,7.80
2022-09-18T03:11:14.288Z,7.70
2022-09-18T03:13:40.986Z,7.80
2022-09-18T03:16:07.861Z,7.80
2022-09-18T03:18:34.615Z,7.80
2022-09-18T03:21:01.347Z,7.80
2022-09-18T03:23:28.148Z,7.80
2022-09-18T03:25:54.842Z,7.70
2022-09-18T03:28:21.569Z,7.70
2022-09-18T03:30:49.979Z,7.70
2022-09-18T03:33:17.126Z,7.70
2022-09-18T03:35:44.129Z,7.70
2022-09-18T03:38:10.943Z,7.70
2022-09-18T03:40:37.919Z,7.70
2022-09-18T03:43:04.878Z,7.70
2022-09-18T03:45:31.706Z,7.70
2022-09-18T03:47:58.451Z,7.70
2022-09-18T03:50:25.249Z,7.70
2022-09-18T03:52:51.972Z,7.80
2022-09-18T03:55:18.692Z,7.80
2022-09-18T03:57:49.814Z,7.80
2022-09-18T04:00:17.279Z,7.80
2022-09-18T04:02:44.612Z,7.80
2022-09-18T04:05:11.559Z,7.80
2022-09-18T04:07:38.736Z,7.80
2022-09-18T04:10:05.816Z,7.80
2022-09-18T04:12:32.580Z,7.80
2022-09-18T04:14:59.400Z,7.90
2022-09-18T04:17:26.450Z,7.90
2022-09-18T04:19:53.890Z,7.80
2022-09-18T04:22:21.872Z,7.80
2022-09-18T04:24:50.398Z,7.80
2022-09-18T04:27:17.685Z,7.80
2022-09-18T04:29:44.521Z,7.80
2022-09-18T04:32:11.270Z,7.90
2022-09-18T04:34:37.969Z,7.90
2022-09-18T04:37:09.416Z,7.90
2022-09-18T04:39:37.062Z,7.90
2022-09-18T04:42:04.459Z,7.80
2022-09-18T04:44:31.283Z,7.80
2022-09-18T04:46:58.044Z,7.80
2022-09-18T04:49:25.015Z,7.80
2022-09-18T04:51:51.801Z,7.80
2022-09-18T04:54:18.515Z,7.90
2022-09-18T04:56:45.220Z,7.90
2022-09-18T04:59:11.944Z,7.90
2022-09-18T05:01:38.680Z,7.90
2022-09-18T05:04:06.891Z,7.90
2022-09-18T05:06:33.658Z,7.90
2022-09-18T05:09:00.457Z,7.90
2022-09-18T05:11:28.335Z,7.90
2022-09-18T05:13:56.842Z,8.00
2022-09-18T05:16:24.837Z,7.90
2022-09-18T05:18:52.398Z,7.90
2022-09-18T05:21:19.426Z,8.00
2022-09-18T05:23:46.992Z,8.00
2022-09-18T05:26:14.042Z,8.00
2022-09-18T05:28:40.948Z,8.10
2022-09-18T05:31:08.459Z,8.10
2022-09-18T05:33:36.296Z,8.10
2022-09-18T05:36:05.699Z,8.10
2022-09-18T05:38:32.617Z,8.10
2022-09-18T05:41:01.759Z,8.10
2022-09-18T05:43:29.341Z,8.10
2022-09-18T05:45:56.861Z,8.10
2022-09-18T05:48:23.987Z,8.10
2022-09-18T05:50:52.035Z,8.10
2022-09-18T05:53:21.683Z,8.10
2022-09-18T05:55:48.583Z,8.10
2022-09-18T05:58:17.562Z,8.20
2022-09-18T06:00:45.389Z,8.10
2022-09-18T06:03:14.634Z,8.20
2022-09-18T06:05:42.764Z,8.20
2022-09-18T06:08:11.444Z,8.10
2022-09-18T06:10:40.450Z,8.10
2022-09-18T06:13:10.520Z,8.10
2022-09-18T06:15:37.500Z,8.10
2022-09-18T06:18:05.573Z,8.20
2022-09-18T06:20:32.576Z,8.10
2022-09-18T06:23:02.921Z,8.10
2022-09-18T06:25:30.620Z,8.20
2022-09-18T06:28:01.307Z,8.10
2022-09-18T06:30:31.544Z,8.10
2022-09-18T06:33:05.781Z,8.20
2022-09-18T06:35:33.921Z,8.20
2022-09-18T06:38:03.178Z,8.20
2022-09-18T06:40:33.931Z,8.20
2022-09-18T06:43:02.296Z,8.20
2022-09-18T06:45:30.973Z,8.20
2022-09-18T06:48:02.107Z,8.20
2022-09-18T06:50:29.798Z,8.20
2022-09-18T06:53:08.738Z,8.30
2022-09-18T06:55:38.387Z,8.30
2022-09-18T06:58:05.115Z,8.30
2022-09-18T07:00:31.867Z,8.40
2022-09-18T07:03:02.574Z,8.40
2022-09-18T07:05:32.329Z,8.40
2022-09-18T07:07:59.605Z,8.40
2022-09-18T07:10:26.424Z,8.40
2022-09-18T07:12:57.778Z,8.40
2022-09-18T07:15:26.073Z,8.40
2022-09-18T07:17:56.342Z,8.50
2022-09-18T07:20:23.091Z,8.50
2022-09-18T07:22:58.621Z,8.50
2022-09-18T07:25:27.353Z,8.50
2022-09-18T07:27:54.330Z,8.50
2022-09-18T07:30:21.345Z,8.50
2022-09-18T07:32:52.013Z,8.50
2022-09-18T07:35:18.706Z,8.50
2022-09-18T07:37:45.469Z,8.60
2022-09-18T07:40:12.836Z,8.60
2022-09-18T07:42:40.073Z,8.60
2022-09-18T07:45:07.288Z,8.60
2022-09-18T07:47:34.505Z,8.60
2022-09-18T07:50:01.542Z,8.70
2022-09-18T07:52:28.484Z,8.70
2022-09-18T07:54:55.248Z,8.80
2022-09-18T07:57:22.131Z,8.80
2022-09-18T07:59:48.893Z,8.80
2022-09-18T08:02:15.768Z,8.90
2022-09-18T08:04:42.560Z,8.90
2022-09-18T08:07:09.327Z,8.90
2022-09-18T08:09:36.086Z,8.90
2022-09-18T08:12:03.560Z,8.90
2022-09-18T08:14:30.484Z,9.00
2022-09-18T08:16:57.857Z,9.00
2022-09-18T08:19:24.848Z,9.00
2022-09-18T08:21:51.573Z,9.10
2022-09-18T08:24:18.323Z,9.20
2022-09-18T08:26:45.724Z,9.20
2022-09-18T08:29:19.186Z,9.20
2022-09-18T08:31:49.121Z,9.30
2022-09-18T08:34:16.006Z,9.40
2022-09-18T08:36:42.777Z,9.40
2022-09-18T08:39:10.238Z,9.40
2022-09-18T08:42:01.760Z,9.50
2022-09-18T08:44:44.551Z,9.60
2022-09-18T08:47:46.729Z,9.80
2022-09-18T08:50:18.400Z,9.80
2022-09-18T08:52:51.079Z,9.70
2022-09-18T08:55:31.237Z,9.70
2022-09-18T08:58:06.960Z,9.70
2022-09-18T09:00:49.085Z,9.70
2022-09-18T09:03:26.565Z,9.80
2022-09-18T09:06:24.945Z,9.80
2022-09-18T09:09:22.854Z,9.90
2022-09-18T09:12:02.213Z,10.00
2022-09-18T09:14:57.057Z,10.00
2022-09-18T09:17:40.696Z,10.10
2022-09-18T09:20:43.260Z,10.10
2022-09-18T09:23:19.157Z,10.10
2022-09-18T09:26:10.201Z,10.00
2022-09-18T09:28:42.931Z,10.10
2022-09-18T09:31:10.657Z,10.10
2022-09-18T09:33:52.479Z,10.20
2022-09-18T09:36:24.879Z,10.40
2022-09-18T09:38:55.212Z,10.50
2022-09-18T09:41:28.209Z,10.60
2022-09-18T09:44:32.436Z,10.60
2022-09-18T09:47:24.020Z,10.70
2022-09-18T09:50:35.451Z,10.70
2022-09-18T09:53:07.583Z,10.80
2022-09-18T09:55:58.566Z,10.90
2022-09-18T09:58:59.218Z,11.10
2022-09-18T10:01:38.703Z,11.20
2022-09-18T10:04:30.216Z,11.10
2022-09-18T10:07:05.711Z,11.00
2022-09-18T10:09:47.476Z,10.90
2022-09-18T10:12:32.690Z,10.80
2022-09-18T10:15:23.435Z,10.70
2022-09-18T10:17:55.622Z,10.70
2022-09-18T10:20:27.932Z,10.80
2022-09-18T10:22:58.330Z,10.80
2022-09-18T10:25:40.894Z,10.70
2022-09-18T10:28:15.301Z,10.80
2022-09-18T10:31:10.737Z,10.70
2022-09-18T10:33:40.744Z,10.70
2022-09-18T10:36:31.377Z,10.80
2022-09-18T10:38:59.835Z,10.80
2022-09-18T10:41:28.461Z,10.80
2022-09-18T10:44:19.182Z,10.90
2022-09-18T10:47:05.281Z,10.90
2022-09-18T10:49:55.772Z,11.10
2022-09-18T10:52:38.609Z,11.10
2022-09-18T10:55:06.091Z,11.20
2022-09-18T10:57:47.007Z,11.20
2022-09-18T11:00:20.086Z,11.20
2022-09-18T11:02:56.146Z,11.20
2022-09-18T11:05:33.094Z,11.20
2022-09-18T11:08:03.776Z,11.20
2022-09-18T11:10:37.064Z,11.20
2022-09-18T11:13:04.765Z,11.10
2022-09-18T11:15:38.384Z,11.10
2022-09-18T11:18:13.039Z,11.10
2022-09-18T11:20:43.682Z,11.00
2022-09-18T11:23:19.429Z,11.00
2022-09-18T11:25:47.278Z,11.10
2022-09-18T11:28:33.142Z,11.20
2022-09-18T11:31:06.246Z,11.40
2022-09-18T11:33:40.152Z,11.60
2022-09-18T11:36:11.203Z,11.80
2022-09-18T11:38:46.389Z,11.70
2022-09-18T11:41:20.652Z,11.70
2022-09-18T11:44:01.398Z,11.60
2022-09-18T11:46:52.263Z,11.50
2022-09-18T11:49:28.502Z,11.30
2022-09-18T11:52:01.350Z,11.20
2022-09-18T11:54:36.932Z,11.10
2022-09-18T11:57:13.142Z,11.20
2022-09-18T11:59:42.948Z,11.30
2022-09-18T12:02:30.470Z,11.50
2022-09-18T12:05:12.376Z,11.80
2022-09-18T12:07:56.382Z,12.10
2022-09-18T12:10:55.401Z,12.40
2022-09-18T12:13:41.107Z,12.50
2022-09-18T12:16:26.511Z,12.60
2022-09-18T12:19:18.153Z,12.50
2022-09-18T12:21:53.365Z,12.40
2022-09-18T12:24:20.713Z,12.30
2022-09-18T12:26:54.646Z,12.20
2022-09-18T12:29:34.044Z,12.20
2022-09-18T12:32:18.648Z,12.30
2022-09-18T12:34:49.708Z,12.30
2022-09-18T12:37:45.551Z,12.30
2022-09-18T12:40:35.994Z,12.20
2022-09-18T12:43:29.231Z,12.20
2022-09-18T12:46:17.676Z,12.20
2022-09-18T12:49:02.243Z,12.30
2022-09-18T12:51:51.523Z,12.50
2022-09-18T12:54:33.074Z,12.70
2022-09-18T12:57:15.933Z,12.90
2022-09-18T12:59:49.902Z,13.00
2022-09-18T13:02:39.528Z,13.10
2022-09-18T13:05:15.239Z,13.10
2022-09-18T13:08:02.904Z,13.20
2022-09-18T13:10:38.759Z,13.20
2022-09-18T13:13:30.302Z,13.30
2022-09-18T13:16:16.456Z,13.40
2022-09-18T13:18:55.789Z,13.50
2022-09-18T13:21:27.934Z,13.50
2022-09-18T13:23:55.694Z,13.40
2022-09-18T13:26:26.076Z,13.40
2022-09-18T13:28:53.172Z,13.30
2022-09-18T13:31:29.067Z,13.30
2022-09-18T13:34:04.870Z,13.20
2022-09-18T13:36:40.953Z,13.20
2022-09-18T13:39:28.891Z,13.20
2022-09-18T13:41:58.276Z,13.20
2022-09-18T13:44:28.271Z,13.20
2022-09-18T13:47:14.239Z,13.20
2022-09-18T13:49:55.487Z,13.20
2022-09-18T13:52:35.891Z,13.20
2022-09-18T13:55:28.669Z,13.20
2022-09-18T13:58:34.688Z,13.00
2022-09-18T14:01:07.338Z,13.10
2022-09-18T14:03:40.250Z,13.00
2022-09-18T14:06:34.995Z,13.00
2022-09-18T14:09:03.154Z,13.00
2022-09-18T14:11:30.002Z,12.90
2022-09-18T14:13:58.021Z,12.90
2022-09-18T14:16:32.201Z,12.90
2022-09-18T14:19:06.121Z,12.90
2022-09-18T14:21:43.802Z,13.00
2022-09-18T14:24:27.437Z,13.00
2022-09-18T14:27:38.963Z,13.00
2022-09-18T14:30:26.935Z,12.90
2022-09-18T14:33:16.357Z,12.90
2022-09-18T14:35:45.865Z,12.90
2022-09-18T14:38:27.629Z,12.90
2022-09-18T14:41:18.979Z,12.90
2022-09-18T14:43:52.155Z,12.80
2022-09-18T14:46:21.416Z,12.70
2022-09-18T14:48:48.273Z,12.70
2022-09-18T14:51:23.651Z,12.70
2022-09-18T14:53:53.671Z,12.70
2022-09-18T14:56:32.881Z,12.60
2022-09-18T14:59:03.683Z,12.60
2022-09-18T15:01:32.569Z,12.60
2022-09-18T15:04:02.420Z,12.50
2022-09-18T15:06:35.462Z,12.50
2022-09-18T15:09:03.358Z,12.50
2022-09-18T15:11:41.988Z,12.40
2022-09-18T15:14:47.558Z,12.40
2022-09-18T15:17:20.812Z,12.40
2022-09-18T15:19:57.825Z,12.40
2022-09-18T15:22:25.042Z,12.30
2022-09-18T15:24:51.902Z,12.30
2022-09-18T15:27:20.185Z,12.30
2022-09-18T15:30:02.839Z,12.30
2022-09-18T15:32:38.452Z,12.30
2022-09-18T15:35:08.808Z,12.20
2022-09-18T15:37:38.320Z,12.20
2022-09-18T15:40:15.645Z,12.30
2022-09-18T15:42:59.737Z,12.20
2022-09-18T15:45:29.553Z,12.20
2022-09-18T15:47:59.035Z,12.20
2022-09-18T15:50:32.679Z,12.10
2022-09-18T15:53:01.828Z,12.10
2022-09-18T15:55:32.390Z,12.00
2022-09-18T15:58:02.662Z,11.90
2022-09-18T16:00:32.614Z,11.90
2022-09-18T16:03:06.242Z,11.90
2022-09-18T16:05:38.134Z,11.80
2022-09-18T16:08:16.675Z,11.80
2022-09-18T16:10:46.482Z,11.70
2022-09-18T16:13:13.201Z,11.70
2022-09-18T16:15:41.098Z,11.70
2022-09-18T16:18:27.187Z,11.70
2022-09-18T16:20:57.913Z,11.60
2022-09-18T16:23:34.921Z,11.60
2022-09-18T16:26:08.844Z,11.50
2022-09-18T16:28:48.135Z,11.50
2022-09-18T16:31:21.297Z,11.50
2022-09-18T16:33:51.842Z,11.50
2022-09-18T16:36:33.001Z,11.40
2022-09-18T16:39:01.830Z,11.40
2022-09-18T16:41:29.825Z,11.30
2022-09-18T16:43:56.868Z,11.20
2022-09-18T16:46:33.787Z,11.20
2022-09-18T16:49:01.896Z,11.20
2022-09-18T16:51:28.650Z,11.10
2022-09-18T16:53:55.510Z,11.10
2022-09-18T16:56:35.727Z,11.10
2022-09-18T16:59:05.454Z,11.00
2022-09-18T17:01:48.583Z,11.00
2022-09-18T17:04:22.652Z,11.00
2022-09-18T17:06:49.896Z,10.90
2022-09-18T17:09:16.891Z,10.90
2022-09-18T17:11:43.980Z,10.90
2022-09-18T17:14:11.004Z,10.90
2022-09-18T17:16:44.541Z,10.80
2022-09-18T17:19:12.930Z,10.80
2022-09-18T17:21:40.049Z,10.80
2022-09-18T17:24:07.024Z,10.80
2022-09-18T17:26:38.223Z,10.70
2022-09-18T17:29:05.428Z,10.70
2022-09-18T17:31:32.616Z,10.70
2022-09-18T17:34:00.858Z,10.70
2022-09-18T17:36:28.116Z,10.60
2022-09-18T17:38:55.711Z,10.60
2022-09-18T17:41:24.470Z,10.60
2022-09-18T17:43:53.112Z,10.50
2022-09-18T17:46:20.410Z,10.50
2022-09-18T17:48:47.218Z,10.50
2022-09-18T17:51:18.646Z,10.50
2022-09-18T17:53:47.895Z,10.50
2022-09-18T17:56:17.680Z,10.50
2022-09-18T17:58:45.416Z,10.40
2022-09-18T18:01:15.948Z,10.40
2022-09-18T18:04:04.968Z,10.50
2022-09-18T18:06:32.516Z,10.40
2022-09-18T18:08:59.373Z,10.40
2022-09-18T18:11:26.390Z,10.40
2022-09-18T18:13:54.347Z,10.40
2022-09-18T18:16:27.483Z,10.40
2022-09-18T18:19:12.821Z,10.30
2022-09-18T18:21:41.801Z,10.40
2022-09-18T18:24:11.868Z,10.40
2022-09-18T18:26:39.667Z,10.40
2022-09-18T18:29:08.566Z,10.30
2022-09-18T18:31:36.339Z,10.30
2022-09-18T18:34:04.524Z,10.30
2022-09-18T18:36:33.887Z,10.30
2022-09-18T18:39:04.324Z,10.30
2022-09-18T18:41:33.141Z,10.30
2022-09-18T18:44:05.600Z,10.30
2022-09-18T18:46:37.101Z,10.20
2022-09-18T18:49:09.452Z,10.30
2022-09-18T18:51:45.611Z,10.30
2022-09-18T18:54:16.335Z,10.30
2022-09-18T18:56:43.410Z,10.30
2022-09-18T18:59:16.654Z,10.30
2022-09-18T19:01:43.835Z,10.30
2022-09-18T19:04:13.365Z,10.30
2022-09-18T19:06:42.457Z,10.30
2022-09-18T19:09:19.792Z,10.30
2022-09-18T19:11:48.471Z,10.20
2022-09-18T19:14:25.340Z,10.20
2022-09-18T19:16:53.798Z,10.20
2022-09-18T19:19:34.796Z,10.20
2022-09-18T19:22:01.832Z,10.20
2022-09-18T19:24:30.422Z,10.30
2022-09-18T19:26:58.922Z,10.30
2022-09-18T19:29:26.045Z,10.30
2022-09-18T19:31:52.942Z,10.30
2022-09-18T19:34:21.038Z,10.30
2022-09-18T19:36:50.530Z,10.20
2022-09-18T19:39:19.077Z,10.30
2022-09-18T19:42:12.712Z,10.30
2022-09-18T19:44:42.526Z,10.30
2022-09-18T19:47:27.895Z,10.30
2022-09-18T19:49:56.810Z,10.30
2022-09-18T19:52:27.655Z,10.30
2022-09-18T19:55:52.377Z,10.30
2022-09-18T19:58:20.172Z,10.40
2022-09-18T20:00:48.218Z,10.40
2022-09-18T20:03:15.394Z,10.40
2022-09-18T20:05:43.115Z,10.40
2022-09-18T20:08:09.975Z,10.40
2022-09-18T20:10:38.817Z,10.40
2022-09-18T20:13:06.785Z,10.40
2022-09-18T20:15:33.618Z,10.40
2022-09-18T20:18:00.450Z,10.40
2022-09-18T20:20:27.413Z,10.40
2022-09-18T20:22:55.777Z,10.40
2022-09-18T20:25:25.115Z,10.50
2022-09-18T20:27:52.007Z,10.40
2022-09-18T20:30:19.568Z,10.50
2022-09-18T20:32:46.396Z,10.50
2022-09-18T20:35:13.303Z,10.50
2022-09-18T20:37:40.510Z,10.50
2022-09-18T20:40:12.910Z,10.40
2022-09-18T20:42:39.779Z,10.40
2022-09-18T20:45:08.668Z,10.50
2022-09-18T20:47:37.329Z,10.40
2022-09-18T20:50:09.764Z,10.40
2022-09-18T20:52:43.102Z,10.40
2022-09-18T20:55:27.396Z,10.40
2022-09-18T20:58:07.403Z,10.40
2022-09-18T21:00:36.266Z,10.40
2022-09-18T21:03:03.002Z,10.40
2022-09-18T21:05:30.971Z,10.30
2022-09-18T21:07:58.317Z,10.30
2022-09-18T21:10:25.074Z,10.30
2022-09-18T21:12:52.615Z,10.20
2022-09-18T21:15:22.593Z,10.20
2022-09-18T21:17:52.268Z,10.20
2022-09-18T21:20:19.647Z,10.10
2022-09-18T21:23:05.803Z,10.10
2022-09-18T21:25:32.931Z,10.00
2022-09-18T21:27:59.940Z,9.90
2022-09-18T21:30:26.803Z,9.80
2022-09-18T21:32:55.809Z,9.80
2022-09-18T21:35:22.852Z,9.80
2022-09-18T21:37:49.702Z,9.80
2022-09-18T21:40:16.648Z,9.80
2022-09-18T21:42:47.697Z,9.80
2022-09-18T21:45:20.715Z,9.80
2022-09-18T21:47:50.598Z,9.80
2022-09-18T21:50:17.831Z,9.80
2022-09-18T21:52:44.773Z,9.70
2022-09-18T21:55:11.594Z,9.70
2022-09-18T21:57:38.477Z,9.60
2022-09-18T22:00:08.702Z,9.50
2022-09-18T22:02:36.484Z,9.50
2022-09-18T22:05:05.561Z,9.50
2022-09-18T22:07:33.265Z,9.40
2022-09-18T22:10:00.095Z,9.40
2022-09-18T22:12:26.824Z,9.40
2022-09-18T22:14:53.553Z,9.40
2022-09-18T22:17:20.288Z,9.40
2022-09-18T22:19:47.293Z,9.40
2022-09-18T22:22:14.076Z,9.30
2022-09-18T22:24:40.802Z,9.30
2022-09-18T22:27:08.578Z,9.30
2022-09-18T22:29:38.533Z,9.30
2022-09-18T22:32:05.807Z,9.30
2022-09-18T22:34:34.878Z,9.30
2022-09-18T22:37:02.147Z,9.20
2022-09-18T22:39:29.164Z,9.30
2022-09-18T22:41:56.132Z,9.30
2022-09-18T22:44:23.414Z,9.30
2022-09-18T22:46:54.407Z,9.30
2022-09-18T22:49:23.318Z,9.30
2022-09-18T22:51:51.270Z,9.30
2022-09-18T22:54:23.958Z,9.30
2022-09-18T22:56:52.172Z,9.30
2022-09-18T22:59:21.908Z,9.30
2022-09-18T23:01:57.890Z,9.20
2022-09-18T23:04:29.156Z,9.20
2022-09-18T23:06:57.371Z,9.20
2022-09-18T23:09:24.726Z,9.20
2022-09-18T23:11:53.117Z,9.20
2022-09-18T23:14:22.513Z,9.20
2022-09-18T23:16:50.214Z,9.20
2022-09-18T23:19:22.696Z,9.20
2022-09-18T23:21:49.702Z,9.20
2022-09-18T23:24:16.723Z,9.10
2022-09-18T23:26:46.000Z,9.10
2022-09-18T23:29:16.151Z,9.10
2022-09-18T23:31:44.302Z,9.10
2022-09-18T23:34:14.348Z,9.00
2022-09-18T23:36:46.386Z,9.10
2022-09-18T23:39:26.913Z,9.00
2022-09-18T23:41:53.712Z,9.00
2022-09-18T23:44:21.829Z,8.90
2022-09-18T23:46:48.902Z,9.00
2022-09-18T23:49:16.869Z,8.90
2022-09-18T23:51:48.351Z,9.00
2022-09-18T23:54:18.212Z,9.00
2022-09-18T23:59:22.803Z,9.00
